sensor_id;sensor_type;location;lat;lon;timestamp;P1;durP1;ratioP1;P2;durP2;ratioP2
20014;SDS011;61787;42.022;23.078;2022-07-29T00:00:12;14.40;;;12.98;;
20014;SDS011;61787;42.022;23.078;2022-07-29T00:01:15;14.20;;;12.80;;
20014;SDS011;61787;42.022;23.078;2022-07-29T00:02:19;14.40;;;12.18;;
20014;SDS011;61787;42.022;23.078;2022-07-29T00:03:21;14.88;;;13.30;;
20014;SDS011;61787;42.022;23.078;2022-07-29T00:04:23;14.77;;;13.20;;
20014;SDS011;61787;42.022;23.078;2022-07-29T00:05:25;14.85;;;13.35;;
20014;SDS011;61787;42.022;23.078;2022-07-29T00:06:26;17.42;;;13.18;;
20014;SDS011;61787;42.022;23.078;2022-07-29T00:07:28;13.93;;;12.57;;
20014;SDS011;61787;42.022;23.078;2022-07-29T00:08:30;14.18;;;12.85;;
20014;SDS011;61787;42.022;23.078;2022-07-29T00:09:32;17.23;;;13.65;;
20014;SDS011;61787;42.022;23.078;2022-07-29T00:10:42;14.85;;;12.40;;
20014;SDS011;61787;42.022;23.078;2022-07-29T00:11:43;14.45;;;12.60;;
20014;SDS011;61787;42.022;23.078;2022-07-29T00:12:45;12.93;;;11.73;;
20014;SDS011;61787;42.022;23.078;2022-07-29T00:13:47;12.88;;;11.68;;
20014;SDS011;61787;42.022;23.078;2022-07-29T00:14:51;15.20;;;12.63;;
20014;SDS011;61787;42.022;23.078;2022-07-29T00:15:57;15.35;;;12.45;;
20014;SDS011;61787;42.022;23.078;2022-07-29T00:17:05;12.38;;;11.10;;
20014;SDS011;61787;42.022;23.078;2022-07-29T00:18:06;13.63;;;11.48;;
20014;SDS011;61787;42.022;23.078;2022-07-29T00:19:08;11.70;;;10.50;;
20014;SDS011;61787;42.022;23.078;2022-07-29T00:20:11;11.63;;;10.38;;
20014;SDS011;61787;42.022;23.078;2022-07-29T00:21:12;12.02;;;9.93;;
20014;SDS011;61787;42.022;23.078;2022-07-29T00:22:14;11.55;;;10.35;;
20014;SDS011;61787;42.022;23.078;2022-07-29T00:23:16;13.85;;;10.75;;
20014;SDS011;61787;42.022;23.078;2022-07-29T00:24:17;13.05;;;11.02;;
20014;SDS011;61787;42.022;23.078;2022-07-29T00:25:19;12.07;;;9.68;;
20014;SDS011;61787;42.022;23.078;2022-07-29T00:26:21;11.50;;;10.13;;
20014;SDS011;61787;42.022;23.078;2022-07-29T00:27:22;11.77;;;10.13;;
20014;SDS011;61787;42.022;23.078;2022-07-29T00:28:24;11.15;;;10.05;;
20014;SDS011;61787;42.022;23.078;2022-07-29T00:29:26;11.60;;;10.40;;
20014;SDS011;61787;42.022;23.078;2022-07-29T00:30:35;11.27;;;10.27;;
20014;SDS011;61787;42.022;23.078;2022-07-29T00:31:37;12.52;;;11.15;;
20014;SDS011;61787;42.022;23.078;2022-07-29T00:32:39;13.18;;;11.82;;
20014;SDS011;61787;42.022;23.078;2022-07-29T00:33:40;13.80;;;12.38;;
20014;SDS011;61787;42.022;23.078;2022-07-29T00:34:42;15.27;;;13.70;;
20014;SDS011;61787;42.022;23.078;2022-07-29T00:36:02;18.05;;;14.45;;
20014;SDS011;61787;42.022;23.078;2022-07-29T00:37:04;16.50;;;15.00;;
20014;SDS011;61787;42.022;23.078;2022-07-29T00:38:08;18.77;;;15.52;;
20014;SDS011;61787;42.022;23.078;2022-07-29T00:39:09;18.65;;;16.70;;
20014;SDS011;61787;42.022;23.078;2022-07-29T00:40:11;16.85;;;15.18;;
20014;SDS011;61787;42.022;23.078;2022-07-29T00:41:13;18.35;;;15.35;;
20014;SDS011;61787;42.022;23.078;2022-07-29T00:42:15;17.80;;;15.88;;
20014;SDS011;61787;42.022;23.078;2022-07-29T00:43:17;16.55;;;14.85;;
20014;SDS011;61787;42.022;23.078;2022-07-29T00:44:19;17.98;;;14.77;;
20014;SDS011;61787;42.022;23.078;2022-07-29T00:45:20;17.02;;;15.25;;
20014;SDS011;61787;42.022;23.078;2022-07-29T00:46:23;16.48;;;14.77;;
20014;SDS011;61787;42.022;23.078;2022-07-29T00:47:25;17.08;;;15.40;;
20014;SDS011;61787;42.022;23.078;2022-07-29T00:48:26;16.40;;;14.75;;
20014;SDS011;61787;42.022;23.078;2022-07-29T00:49:28;16.33;;;14.63;;
20014;SDS011;61787;42.022;23.078;2022-07-29T00:50:30;16.55;;;14.85;;
20014;SDS011;61787;42.022;23.078;2022-07-29T00:51:36;16.77;;;15.07;;
20014;SDS011;61787;42.022;23.078;2022-07-29T00:52:39;16.08;;;14.27;;
20014;SDS011;61787;42.022;23.078;2022-07-29T00:53:42;16.08;;;14.05;;
20014;SDS011;61787;42.022;23.078;2022-07-29T00:54:44;17.35;;;14.57;;
20014;SDS011;61787;42.022;23.078;2022-07-29T00:55:46;18.27;;;14.35;;
20014;SDS011;61787;42.022;23.078;2022-07-29T00:56:48;15.23;;;13.75;;
20014;SDS011;61787;42.022;23.078;2022-07-29T00:57:50;15.23;;;13.70;;
20014;SDS011;61787;42.022;23.078;2022-07-29T00:58:53;15.93;;;14.32;;
20014;SDS011;61787;42.022;23.078;2022-07-29T00:59:56;16.67;;;14.95;;
20014;SDS011;61787;42.022;23.078;2022-07-29T01:00:58;15.50;;;13.90;;
20014;SDS011;61787;42.022;23.078;2022-07-29T01:02:00;15.27;;;13.82;;
20014;SDS011;61787;42.022;23.078;2022-07-29T01:03:02;18.70;;;15.40;;
20014;SDS011;61787;42.022;23.078;2022-07-29T01:04:05;17.58;;;15.32;;
20014;SDS011;61787;42.022;23.078;2022-07-29T01:05:07;17.60;;;15.80;;
20014;SDS011;61787;42.022;23.078;2022-07-29T01:06:10;17.00;;;15.00;;
20014;SDS011;61787;42.022;23.078;2022-07-29T01:07:11;16.42;;;14.73;;
20014;SDS011;61787;42.022;23.078;2022-07-29T01:08:14;19.50;;;16.15;;
20014;SDS011;61787;42.022;23.078;2022-07-29T01:09:17;19.15;;;17.15;;
20014;SDS011;61787;42.022;23.078;2022-07-29T01:10:37;18.15;;;16.35;;
20014;SDS011;61787;42.022;23.078;2022-07-29T01:11:41;18.15;;;16.23;;
20014;SDS011;61787;42.022;23.078;2022-07-29T01:12:45;19.60;;;16.88;;
20014;SDS011;61787;42.022;23.078;2022-07-29T01:13:49;18.77;;;16.85;;
20014;SDS011;61787;42.022;23.078;2022-07-29T01:14:50;13.88;;;12.27;;
20014;SDS011;61787;42.022;23.078;2022-07-29T01:15:56;12.18;;;10.73;;
20014;SDS011;61787;42.022;23.078;2022-07-29T01:17:08;12.48;;;11.15;;
20014;SDS011;61787;42.022;23.078;2022-07-29T01:18:18;11.38;;;10.25;;
20014;SDS011;61787;42.022;23.078;2022-07-29T01:27:41;12.82;;;9.77;;
20014;SDS011;61787;42.022;23.078;2022-07-29T01:30:08;10.98;;;6.60;;
20014;SDS011;61787;42.022;23.078;2022-07-29T01:31:14;9.23;;;6.85;;
20014;SDS011;61787;42.022;23.078;2022-07-29T01:32:27;7.55;;;6.85;;
20014;SDS011;61787;42.022;23.078;2022-07-29T01:33:34;8.13;;;6.88;;
20014;SDS011;61787;42.022;23.078;2022-07-29T01:34:53;8.20;;;7.32;;
20014;SDS011;61787;42.022;23.078;2022-07-29T01:36:10;12.55;;;10.35;;
20014;SDS011;61787;42.022;23.078;2022-07-29T01:37:24;13.27;;;11.90;;
20014;SDS011;61787;42.022;23.078;2022-07-29T01:38:28;14.18;;;11.68;;
20014;SDS011;61787;42.022;23.078;2022-07-29T01:39:31;15.00;;;13.38;;
20014;SDS011;61787;42.022;23.078;2022-07-29T01:40:43;13.57;;;12.18;;
20014;SDS011;61787;42.022;23.078;2022-07-29T01:42:05;13.43;;;11.98;;
20014;SDS011;61787;42.022;23.078;2022-07-29T01:43:11;14.48;;;12.20;;
20014;SDS011;61787;42.022;23.078;2022-07-29T01:44:22;14.75;;;12.90;;
20014;SDS011;61787;42.022;23.078;2022-07-29T01:46:41;15.50;;;13.68;;
20014;SDS011;61787;42.022;23.078;2022-07-29T01:48:38;15.52;;;13.93;;
20014;SDS011;61787;42.022;23.078;2022-07-29T01:49:16;16.85;;;14.40;;
20014;SDS011;61787;42.022;23.078;2022-07-29T01:50:23;18.42;;;14.80;;
20014;SDS011;61787;42.022;23.078;2022-07-29T01:51:56;18.55;;;13.75;;
20014;SDS011;61787;42.022;23.078;2022-07-29T01:53:02;16.48;;;14.75;;
20014;SDS011;61787;42.022;23.078;2022-07-29T01:54:13;19.17;;;14.50;;
20014;SDS011;61787;42.022;23.078;2022-07-29T01:55:20;16.45;;;14.68;;
20014;SDS011;61787;42.022;23.078;2022-07-29T01:56:26;10.75;;;9.43;;
20014;SDS011;61787;42.022;23.078;2022-07-29T01:57:34;11.13;;;8.43;;
20014;SDS011;61787;42.022;23.078;2022-07-29T01:58:40;9.93;;;8.02;;
20014;SDS011;61787;42.022;23.078;2022-07-29T01:59:44;10.40;;;7.40;;
20014;SDS011;61787;42.022;23.078;2022-07-29T02:00:48;9.43;;;8.52;;
20014;SDS011;61787;42.022;23.078;2022-07-29T02:01:52;9.63;;;8.52;;
20014;SDS011;61787;42.022;23.078;2022-07-29T02:02:56;12.18;;;9.65;;
20014;SDS011;61787;42.022;23.078;2022-07-29T02:04:01;11.35;;;10.00;;
20014;SDS011;61787;42.022;23.078;2022-07-29T02:05:06;11.57;;;9.88;;
20014;SDS011;61787;42.022;23.078;2022-07-29T02:06:11;9.68;;;8.50;;
20014;SDS011;61787;42.022;23.078;2022-07-29T02:07:21;9.43;;;8.18;;
20014;SDS011;61787;42.022;23.078;2022-07-29T02:08:24;8.45;;;7.65;;
20014;SDS011;61787;42.022;23.078;2022-07-29T02:09:27;9.13;;;7.22;;
20014;SDS011;61787;42.022;23.078;2022-07-29T02:10:31;8.40;;;7.55;;
20014;SDS011;61787;42.022;23.078;2022-07-29T02:11:34;12.27;;;8.40;;
20014;SDS011;61787;42.022;23.078;2022-07-29T02:12:38;9.45;;;7.68;;
20014;SDS011;61787;42.022;23.078;2022-07-29T02:13:41;10.63;;;7.97;;
20014;SDS011;61787;42.022;23.078;2022-07-29T02:14:45;10.25;;;8.77;;
20014;SDS011;61787;42.022;23.078;2022-07-29T02:15:51;9.55;;;7.95;;
20014;SDS011;61787;42.022;23.078;2022-07-29T02:16:54;11.38;;;8.43;;
20014;SDS011;61787;42.022;23.078;2022-07-29T02:18:07;10.45;;;8.05;;
20014;SDS011;61787;42.022;23.078;2022-07-29T02:19:10;8.05;;;7.32;;
20014;SDS011;61787;42.022;23.078;2022-07-29T02:20:14;10.32;;;7.32;;
20014;SDS011;61787;42.022;23.078;2022-07-29T02:21:19;10.13;;;7.88;;
20014;SDS011;61787;42.022;23.078;2022-07-29T02:22:25;9.10;;;7.28;;
20014;SDS011;61787;42.022;23.078;2022-07-29T02:23:30;9.27;;;7.10;;
20014;SDS011;61787;42.022;23.078;2022-07-29T02:24:51;8.45;;;6.68;;
20014;SDS011;61787;42.022;23.078;2022-07-29T02:25:55;7.55;;;6.85;;
20014;SDS011;61787;42.022;23.078;2022-07-29T02:26:59;7.95;;;7.18;;
20014;SDS011;61787;42.022;23.078;2022-07-29T02:28:03;7.75;;;6.82;;
20014;SDS011;61787;42.022;23.078;2022-07-29T02:29:06;7.78;;;6.90;;
20014;SDS011;61787;42.022;23.078;2022-07-29T02:30:11;8.07;;;7.28;;
20014;SDS011;61787;42.022;23.078;2022-07-29T02:31:13;8.88;;;7.00;;
20014;SDS011;61787;42.022;23.078;2022-07-29T02:32:17;7.28;;;6.57;;
20014;SDS011;61787;42.022;23.078;2022-07-29T02:33:20;10.30;;;7.55;;
20014;SDS011;61787;42.022;23.078;2022-07-29T02:34:23;9.40;;;7.45;;
20014;SDS011;61787;42.022;23.078;2022-07-29T02:35:26;20.10;;;8.20;;
20014;SDS011;61787;42.022;23.078;2022-07-29T02:36:35;10.43;;;8.05;;
20014;SDS011;61787;42.022;23.078;2022-07-29T02:37:37;13.77;;;8.05;;
20014;SDS011;61787;42.022;23.078;2022-07-29T02:38:41;9.38;;;7.93;;
20014;SDS011;61787;42.022;23.078;2022-07-29T02:39:54;9.10;;;7.97;;
20014;SDS011;61787;42.022;23.078;2022-07-29T02:40:56;9.93;;;8.80;;
20014;SDS011;61787;42.022;23.078;2022-07-29T02:42:02;10.30;;;8.68;;
20014;SDS011;61787;42.022;23.078;2022-07-29T02:43:06;13.75;;;9.15;;
20014;SDS011;61787;42.022;23.078;2022-07-29T02:44:17;11.18;;;8.57;;
20014;SDS011;61787;42.022;23.078;2022-07-29T02:45:20;12.90;;;8.40;;
20014;SDS011;61787;42.022;23.078;2022-07-29T02:46:31;10.50;;;7.55;;
20014;SDS011;61787;42.022;23.078;2022-07-29T02:47:46;9.45;;;8.25;;
20014;SDS011;61787;42.022;23.078;2022-07-29T02:50:17;10.85;;;8.70;;
20014;SDS011;61787;42.022;23.078;2022-07-29T02:51:30;12.10;;;8.30;;
20014;SDS011;61787;42.022;23.078;2022-07-29T02:52:45;10.70;;;8.67;;
20014;SDS011;61787;42.022;23.078;2022-07-29T02:53:55;10.52;;;8.65;;
20014;SDS011;61787;42.022;23.078;2022-07-29T02:55:07;12.13;;;9.32;;
20014;SDS011;61787;42.022;23.078;2022-07-29T02:56:16;10.80;;;8.73;;
20014;SDS011;61787;42.022;23.078;2022-07-29T02:57:25;10.55;;;9.02;;
20014;SDS011;61787;42.022;23.078;2022-07-29T02:58:34;10.95;;;9.40;;
20014;SDS011;61787;42.022;23.078;2022-07-29T02:59:50;10.57;;;9.40;;
20014;SDS011;61787;42.022;23.078;2022-07-29T03:01:38;11.63;;;9.25;;
20014;SDS011;61787;42.022;23.078;2022-07-29T03:02:23;13.15;;;10.00;;
20014;SDS011;61787;42.022;23.078;2022-07-29T03:03:32;13.15;;;10.13;;
20014;SDS011;61787;42.022;23.078;2022-07-29T03:04:37;14.93;;;9.30;;
20014;SDS011;61787;42.022;23.078;2022-07-29T03:05:42;12.00;;;9.73;;
20014;SDS011;61787;42.022;23.078;2022-07-29T03:06:44;16.08;;;10.00;;
20014;SDS011;61787;42.022;23.078;2022-07-29T03:07:49;10.80;;;9.68;;
20014;SDS011;61787;42.022;23.078;2022-07-29T03:08:55;11.05;;;9.88;;
20014;SDS011;61787;42.022;23.078;2022-07-29T03:10:00;14.40;;;9.77;;
20014;SDS011;61787;42.022;23.078;2022-07-29T03:11:03;11.07;;;9.35;;
20014;SDS011;61787;42.022;23.078;2022-07-29T03:12:05;11.32;;;10.13;;
20014;SDS011;61787;42.022;23.078;2022-07-29T03:13:08;12.88;;;9.77;;
20014;SDS011;61787;42.022;23.078;2022-07-29T03:14:11;13.63;;;9.57;;
20014;SDS011;61787;42.022;23.078;2022-07-29T03:15:14;12.52;;;10.20;;
20014;SDS011;61787;42.022;23.078;2022-07-29T03:16:16;12.53;;;9.60;;
20014;SDS011;61787;42.022;23.078;2022-07-29T03:17:20;10.45;;;9.40;;
20014;SDS011;61787;42.022;23.078;2022-07-29T03:18:23;11.02;;;9.57;;
20014;SDS011;61787;42.022;23.078;2022-07-29T03:19:25;12.82;;;10.40;;
20014;SDS011;61787;42.022;23.078;2022-07-29T03:20:28;11.80;;;10.45;;
20014;SDS011;61787;42.022;23.078;2022-07-29T03:21:30;10.85;;;9.32;;
20014;SDS011;61787;42.022;23.078;2022-07-29T03:22:32;11.68;;;10.20;;
20014;SDS011;61787;42.022;23.078;2022-07-29T03:23:34;13.30;;;10.45;;
20014;SDS011;61787;42.022;23.078;2022-07-29T03:24:37;13.23;;;11.43;;
20014;SDS011;61787;42.022;23.078;2022-07-29T03:25:39;13.32;;;11.27;;
20014;SDS011;61787;42.022;23.078;2022-07-29T03:26:41;11.68;;;10.48;;
20014;SDS011;61787;42.022;23.078;2022-07-29T03:27:42;12.85;;;11.38;;
20014;SDS011;61787;42.022;23.078;2022-07-29T03:28:45;13.95;;;12.45;;
20014;SDS011;61787;42.022;23.078;2022-07-29T03:29:47;15.98;;;13.63;;
20014;SDS011;61787;42.022;23.078;2022-07-29T03:30:50;15.50;;;13.00;;
20014;SDS011;61787;42.022;23.078;2022-07-29T03:31:52;17.77;;;12.90;;
20014;SDS011;61787;42.022;23.078;2022-07-29T03:32:54;17.13;;;14.90;;
20014;SDS011;61787;42.022;23.078;2022-07-29T03:33:59;19.30;;;13.40;;
20014;SDS011;61787;42.022;23.078;2022-07-29T03:35:00;18.08;;;15.55;;
20014;SDS011;61787;42.022;23.078;2022-07-29T03:36:03;18.88;;;15.57;;
20014;SDS011;61787;42.022;23.078;2022-07-29T03:37:05;17.67;;;15.73;;
20014;SDS011;61787;42.022;23.078;2022-07-29T03:38:07;17.67;;;15.50;;
20014;SDS011;61787;42.022;23.078;2022-07-29T03:39:09;18.85;;;14.82;;
20014;SDS011;61787;42.022;23.078;2022-07-29T03:40:14;21.65;;;16.77;;
20014;SDS011;61787;42.022;23.078;2022-07-29T03:41:38;19.55;;;16.70;;
20014;SDS011;61787;42.022;23.078;2022-07-29T03:42:42;19.25;;;17.10;;
20014;SDS011;61787;42.022;23.078;2022-07-29T03:43:45;21.40;;;17.95;;
20014;SDS011;61787;42.022;23.078;2022-07-29T03:44:50;22.95;;;17.40;;
20014;SDS011;61787;42.022;23.078;2022-07-29T03:45:55;20.50;;;17.85;;
20014;SDS011;61787;42.022;23.078;2022-07-29T03:46:59;24.95;;;19.25;;
20014;SDS011;61787;42.022;23.078;2022-07-29T03:48:07;24.17;;;18.03;;
20014;SDS011;61787;42.022;23.078;2022-07-29T03:49:11;25.17;;;19.48;;
20014;SDS011;61787;42.022;23.078;2022-07-29T03:50:14;23.67;;;18.90;;
20014;SDS011;61787;42.022;23.078;2022-07-29T03:51:17;22.10;;;18.73;;
20014;SDS011;61787;42.022;23.078;2022-07-29T03:52:33;28.40;;;19.13;;
20014;SDS011;61787;42.022;23.078;2022-07-29T03:53:36;26.45;;;18.60;;
20014;SDS011;61787;42.022;23.078;2022-07-29T03:54:38;26.95;;;20.08;;
20014;SDS011;61787;42.022;23.078;2022-07-29T03:55:41;29.77;;;21.63;;
20014;SDS011;61787;42.022;23.078;2022-07-29T03:56:46;27.60;;;21.02;;
20014;SDS011;61787;42.022;23.078;2022-07-29T03:57:53;27.88;;;20.63;;
20014;SDS011;61787;42.022;23.078;2022-07-29T03:58:57;29.10;;;20.58;;
20014;SDS011;61787;42.022;23.078;2022-07-29T04:00:00;27.05;;;20.35;;
20014;SDS011;61787;42.022;23.078;2022-07-29T04:01:05;26.73;;;20.10;;
20014;SDS011;61787;42.022;23.078;2022-07-29T04:02:08;24.63;;;19.05;;
20014;SDS011;61787;42.022;23.078;2022-07-29T04:03:11;26.60;;;19.42;;
20014;SDS011;61787;42.022;23.078;2022-07-29T04:04:16;28.40;;;18.88;;
20014;SDS011;61787;42.022;23.078;2022-07-29T04:05:18;25.70;;;19.23;;
20014;SDS011;61787;42.022;23.078;2022-07-29T04:06:20;25.17;;;18.77;;
20014;SDS011;61787;42.022;23.078;2022-07-29T04:07:22;26.42;;;19.92;;
20014;SDS011;61787;42.022;23.078;2022-07-29T04:08:23;23.63;;;18.48;;
20014;SDS011;61787;42.022;23.078;2022-07-29T04:09:25;25.08;;;19.50;;
20014;SDS011;61787;42.022;23.078;2022-07-29T04:10:27;27.05;;;19.60;;
20014;SDS011;61787;42.022;23.078;2022-07-29T04:11:32;29.23;;;19.15;;
20014;SDS011;61787;42.022;23.078;2022-07-29T04:12:54;22.88;;;18.33;;
20014;SDS011;61787;42.022;23.078;2022-07-29T04:13:56;27.00;;;19.50;;
20014;SDS011;61787;42.022;23.078;2022-07-29T04:14:57;25.27;;;18.20;;
20014;SDS011;61787;42.022;23.078;2022-07-29T04:15:59;20.23;;;17.55;;
20014;SDS011;61787;42.022;23.078;2022-07-29T04:17:01;24.98;;;18.55;;
20014;SDS011;61787;42.022;23.078;2022-07-29T04:18:04;23.02;;;17.67;;
20014;SDS011;61787;42.022;23.078;2022-07-29T04:19:07;24.52;;;18.35;;
20014;SDS011;61787;42.022;23.078;2022-07-29T04:20:09;25.48;;;17.95;;
20014;SDS011;61787;42.022;23.078;2022-07-29T04:21:13;23.77;;;18.00;;
20014;SDS011;61787;42.022;23.078;2022-07-29T04:22:15;23.88;;;18.35;;
20014;SDS011;61787;42.022;23.078;2022-07-29T04:23:17;20.40;;;17.75;;
20014;SDS011;61787;42.022;23.078;2022-07-29T04:24:19;20.77;;;17.05;;
20014;SDS011;61787;42.022;23.078;2022-07-29T04:25:21;27.97;;;18.80;;
20014;SDS011;61787;42.022;23.078;2022-07-29T04:26:23;24.55;;;17.70;;
20014;SDS011;61787;42.022;23.078;2022-07-29T04:27:24;23.20;;;17.88;;
20014;SDS011;61787;42.022;23.078;2022-07-29T04:28:26;27.77;;;19.67;;
20014;SDS011;61787;42.022;23.078;2022-07-29T04:29:28;28.43;;;18.53;;
20014;SDS011;61787;42.022;23.078;2022-07-29T04:30:30;26.67;;;18.30;;
20014;SDS011;61787;42.022;23.078;2022-07-29T04:31:33;26.15;;;19.33;;
20014;SDS011;61787;42.022;23.078;2022-07-29T04:32:34;22.85;;;18.88;;
20014;SDS011;61787;42.022;23.078;2022-07-29T04:33:36;34.47;;;26.23;;
20014;SDS011;61787;42.022;23.078;2022-07-29T04:34:37;28.20;;;20.55;;
20014;SDS011;61787;42.022;23.078;2022-07-29T04:35:39;27.23;;;18.35;;
20014;SDS011;61787;42.022;23.078;2022-07-29T04:36:52;24.17;;;17.08;;
20014;SDS011;61787;42.022;23.078;2022-07-29T04:37:54;23.40;;;16.83;;
20014;SDS011;61787;42.022;23.078;2022-07-29T04:38:55;23.20;;;17.65;;
20014;SDS011;61787;42.022;23.078;2022-07-29T04:39:57;20.45;;;16.02;;
20014;SDS011;61787;42.022;23.078;2022-07-29T04:40:58;21.80;;;15.80;;
20014;SDS011;61787;42.022;23.078;2022-07-29T04:42:00;22.38;;;16.17;;
20014;SDS011;61787;42.022;23.078;2022-07-29T04:43:02;22.88;;;16.02;;
20014;SDS011;61787;42.022;23.078;2022-07-29T04:44:06;54.97;;;19.58;;
20014;SDS011;61787;42.022;23.078;2022-07-29T04:45:09;23.52;;;17.20;;
20014;SDS011;61787;42.022;23.078;2022-07-29T04:46:10;22.77;;;16.23;;
20014;SDS011;61787;42.022;23.078;2022-07-29T04:47:12;24.25;;;16.50;;
20014;SDS011;61787;42.022;23.078;2022-07-29T04:48:14;23.08;;;16.77;;
20014;SDS011;61787;42.022;23.078;2022-07-29T04:49:15;26.35;;;17.77;;
20014;SDS011;61787;42.022;23.078;2022-07-29T04:50:17;22.65;;;16.35;;
20014;SDS011;61787;42.022;23.078;2022-07-29T04:51:19;24.20;;;16.20;;
20014;SDS011;61787;42.022;23.078;2022-07-29T04:52:20;22.52;;;16.75;;
20014;SDS011;61787;42.022;23.078;2022-07-29T04:53:22;21.90;;;16.27;;
20014;SDS011;61787;42.022;23.078;2022-07-29T04:54:24;22.25;;;15.93;;
20014;SDS011;61787;42.022;23.078;2022-07-29T04:55:26;22.73;;;16.92;;
20014;SDS011;61787;42.022;23.078;2022-07-29T04:56:28;23.83;;;16.25;;
20014;SDS011;61787;42.022;23.078;2022-07-29T04:57:30;21.25;;;15.75;;
20014;SDS011;61787;42.022;23.078;2022-07-29T04:58:33;24.92;;;16.85;;
20014;SDS011;61787;42.022;23.078;2022-07-29T04:59:36;20.95;;;15.63;;
20014;SDS011;61787;42.022;23.078;2022-07-29T05:00:38;20.67;;;16.50;;
20014;SDS011;61787;42.022;23.078;2022-07-29T05:01:40;24.80;;;17.63;;
20014;SDS011;61787;42.022;23.078;2022-07-29T05:02:43;29.80;;;19.42;;
20014;SDS011;61787;42.022;23.078;2022-07-29T05:03:44;29.05;;;17.75;;
20014;SDS011;61787;42.022;23.078;2022-07-29T05:04:46;22.25;;;16.92;;
20014;SDS011;61787;42.022;23.078;2022-07-29T05:05:48;30.60;;;23.90;;
20014;SDS011;61787;42.022;23.078;2022-07-29T05:06:50;26.98;;;20.55;;
20014;SDS011;61787;42.022;23.078;2022-07-29T05:07:51;19.85;;;16.38;;
20014;SDS011;61787;42.022;23.078;2022-07-29T05:08:53;22.48;;;16.77;;
20014;SDS011;61787;42.022;23.078;2022-07-29T05:09:55;25.33;;;17.58;;
20014;SDS011;61787;42.022;23.078;2022-07-29T05:10:58;23.70;;;17.17;;
20014;SDS011;61787;42.022;23.078;2022-07-29T05:12:12;18.52;;;16.30;;
20014;SDS011;61787;42.022;23.078;2022-07-29T05:13:13;21.45;;;16.92;;
20014;SDS011;61787;42.022;23.078;2022-07-29T05:14:15;19.15;;;15.65;;
20014;SDS011;61787;42.022;23.078;2022-07-29T05:15:17;21.85;;;16.92;;
20014;SDS011;61787;42.022;23.078;2022-07-29T05:16:19;19.40;;;17.05;;
20014;SDS011;61787;42.022;23.078;2022-07-29T05:17:21;21.42;;;16.73;;
20014;SDS011;61787;42.022;23.078;2022-07-29T05:18:23;21.13;;;17.13;;
20014;SDS011;61787;42.022;23.078;2022-07-29T05:19:26;21.48;;;17.52;;
20014;SDS011;61787;42.022;23.078;2022-07-29T05:20:28;27.67;;;17.95;;
20014;SDS011;61787;42.022;23.078;2022-07-29T05:21:31;18.60;;;16.27;;
20014;SDS011;61787;42.022;23.078;2022-07-29T05:22:33;22.15;;;17.25;;
20014;SDS011;61787;42.022;23.078;2022-07-29T05:23:35;19.70;;;16.20;;
20014;SDS011;61787;42.022;23.078;2022-07-29T05:24:36;22.83;;;17.08;;
20014;SDS011;61787;42.022;23.078;2022-07-29T05:25:38;24.77;;;17.45;;
20014;SDS011;61787;42.022;23.078;2022-07-29T05:26:44;23.13;;;17.00;;
20014;SDS011;61787;42.022;23.078;2022-07-29T05:27:46;20.83;;;17.30;;
20014;SDS011;61787;42.022;23.078;2022-07-29T05:28:51;21.05;;;16.75;;
20014;SDS011;61787;42.022;23.078;2022-07-29T05:29:52;20.02;;;15.88;;
20014;SDS011;61787;42.022;23.078;2022-07-29T05:30:54;23.05;;;16.98;;
20014;SDS011;61787;42.022;23.078;2022-07-29T05:31:57;25.10;;;17.15;;
20014;SDS011;61787;42.022;23.078;2022-07-29T05:33:00;19.90;;;16.33;;
20014;SDS011;61787;42.022;23.078;2022-07-29T05:34:02;19.67;;;16.60;;
20014;SDS011;61787;42.022;23.078;2022-07-29T05:35:03;18.83;;;15.43;;
20014;SDS011;61787;42.022;23.078;2022-07-29T05:36:06;21.75;;;15.88;;
20014;SDS011;61787;42.022;23.078;2022-07-29T05:37:08;21.65;;;16.13;;
20014;SDS011;61787;42.022;23.078;2022-07-29T05:38:10;20.88;;;17.10;;
20014;SDS011;61787;42.022;23.078;2022-07-29T05:39:12;20.05;;;16.95;;
20014;SDS011;61787;42.022;23.078;2022-07-29T05:40:14;18.65;;;16.50;;
20014;SDS011;61787;42.022;23.078;2022-07-29T05:41:15;20.83;;;16.80;;
20014;SDS011;61787;42.022;23.078;2022-07-29T05:42:17;21.10;;;17.08;;
20014;SDS011;61787;42.022;23.078;2022-07-29T05:43:19;20.95;;;17.65;;
20014;SDS011;61787;42.022;23.078;2022-07-29T05:44:22;23.10;;;17.70;;
20014;SDS011;61787;42.022;23.078;2022-07-29T05:45:25;19.58;;;17.48;;
20014;SDS011;61787;42.022;23.078;2022-07-29T05:46:27;21.30;;;17.50;;
20014;SDS011;61787;42.022;23.078;2022-07-29T05:47:29;19.70;;;17.50;;
20014;SDS011;61787;42.022;23.078;2022-07-29T05:48:31;20.90;;;17.48;;
20014;SDS011;61787;42.022;23.078;2022-07-29T05:49:33;24.55;;;17.77;;
20014;SDS011;61787;42.022;23.078;2022-07-29T05:50:35;24.67;;;18.20;;
20014;SDS011;61787;42.022;23.078;2022-07-29T05:51:44;21.75;;;17.83;;
20014;SDS011;61787;42.022;23.078;2022-07-29T05:52:46;21.42;;;18.55;;
20014;SDS011;61787;42.022;23.078;2022-07-29T05:53:50;20.38;;;18.00;;
20014;SDS011;61787;42.022;23.078;2022-07-29T05:54:51;22.50;;;18.17;;
20014;SDS011;61787;42.022;23.078;2022-07-29T05:55:53;22.55;;;17.88;;
20014;SDS011;61787;42.022;23.078;2022-07-29T05:56:55;21.33;;;18.83;;
20014;SDS011;61787;42.022;23.078;2022-07-29T05:57:56;21.33;;;18.20;;
20014;SDS011;61787;42.022;23.078;2022-07-29T05:58:58;20.23;;;17.77;;
20014;SDS011;61787;42.022;23.078;2022-07-29T06:00:00;18.98;;;16.98;;
20014;SDS011;61787;42.022;23.078;2022-07-29T06:01:02;19.50;;;17.23;;
20014;SDS011;61787;42.022;23.078;2022-07-29T06:02:04;19.30;;;17.15;;
20014;SDS011;61787;42.022;23.078;2022-07-29T06:03:06;25.08;;;17.05;;
20014;SDS011;61787;42.022;23.078;2022-07-29T06:04:08;19.27;;;16.33;;
20014;SDS011;61787;42.022;23.078;2022-07-29T06:05:09;18.52;;;16.33;;
20014;SDS011;61787;42.022;23.078;2022-07-29T06:06:17;17.60;;;15.45;;
20014;SDS011;61787;42.022;23.078;2022-07-29T06:07:19;23.42;;;16.35;;
20014;SDS011;61787;42.022;23.078;2022-07-29T06:08:21;20.55;;;16.60;;
20014;SDS011;61787;42.022;23.078;2022-07-29T06:09:22;18.92;;;13.75;;
20014;SDS011;61787;42.022;23.078;2022-07-29T06:10:24;17.50;;;14.43;;
20014;SDS011;61787;42.022;23.078;2022-07-29T06:11:27;20.10;;;14.93;;
20014;SDS011;61787;42.022;23.078;2022-07-29T06:12:28;18.00;;;15.15;;
20014;SDS011;61787;42.022;23.078;2022-07-29T06:13:30;16.73;;;15.02;;
20014;SDS011;61787;42.022;23.078;2022-07-29T06:14:32;16.90;;;15.13;;
20014;SDS011;61787;42.022;23.078;2022-07-29T06:15:34;20.00;;;15.50;;
20014;SDS011;61787;42.022;23.078;2022-07-29T06:16:36;17.33;;;15.52;;
20014;SDS011;61787;42.022;23.078;2022-07-29T06:17:38;17.20;;;15.40;;
20014;SDS011;61787;42.022;23.078;2022-07-29T06:18:59;19.48;;;17.48;;
20014;SDS011;61787;42.022;23.078;2022-07-29T06:20:02;18.65;;;16.52;;
20014;SDS011;61787;42.022;23.078;2022-07-29T06:21:07;19.35;;;16.40;;
20014;SDS011;61787;42.022;23.078;2022-07-29T06:22:09;17.38;;;15.10;;
20014;SDS011;61787;42.022;23.078;2022-07-29T06:23:11;20.15;;;15.30;;
20014;SDS011;61787;42.022;23.078;2022-07-29T06:24:13;18.10;;;14.45;;